Time;durP1;ratioP1;P1;durP2;ratioP2;P2;SDS_P1;SDS_P2;PMS_P1;PMS_P2;Temp;Humidity;BMP_temperature;BMP_pressure;BME280_temperature;BME280_humidity;BME280_pressure;Samples;Min_cycle;Max_cycle;Signal;HPM_P1;HPM_P2
2021/01/27 07:44:05;;;;;;;8.37;3.40;;;2.30;81.00;;;;;;5101674;23;20051;-80
2021/01/27 07:46:37;;;;;;;7.40;3.58;;;2.20;80.80;;;;;;4957362;28;20149;-79
2021/01/27 07:49:06;;;;;;;7.63;3.65;;;2.30;80.70;;;;;;4974731;28;20038;-77
2021/01/27 07:51:52;;;;;;;7.47;3.07;;;2.30;80.70;;;;;;4973799;28;20035;-78
2021/01/27 07:54:42;;;;;;;7.37;3.70;;;2.30;81.00;;;;;;4956434;28;20066;-77
2021/01/27 07:57:26;;;;;;;7.37;3.57;;;2.20;80.80;;;;;;4973420;28;20042;-78
2021/01/27 08:00:06;;;;;;;7.50;3.27;;;2.20;81.20;;;;;;4957805;28;20065;-77
2021/01/27 08:02:39;;;;;;;6.40;3.60;;;2.30;81.20;;;;;;4974894;28;20046;-78
2021/01/27 08:05:10;;;;;;;7.40;3.27;;;2.20;80.70;;;;;;4990282;28;20046;-77
2021/01/27 08:07:40;;;;;;;9.43;3.17;;;2.20;81.40;;;;;;4961954;28;20038;-77
2021/01/27 08:10:15;;;;;;;5.43;2.90;;;2.20;81.70;;;;;;4965878;28;20490;-78
2021/01/27 08:12:44;;;;;;;6.93;2.93;;;2.20;82.10;;;;;;4974368;28;20038;-77
2021/01/27 08:15:14;;;;;;;6.07;3.10;;;2.30;82.20;;;;;;4992340;28;20038;-77
2021/01/27 08:18:02;;;;;;;8.20;3.10;;;2.30;82.50;;;;;;4987915;28;20038;-79
2021/01/27 08:20:34;;;;;;;6.93;2.70;;;2.20;83.00;;;;;;4987024;28;20117;-82
2021/01/27 08:23:19;;;;;;;11.02;3.30;;;2.20;83.50;;;;;;4978548;28;20042;-82
2021/01/27 08:25:54;;;;;;;10.70;3.07;;;2.20;84.00;;;;;;4969836;28;20039;-82
2021/01/27 08:28:41;;;;;;;6.50;3.10;;;2.10;84.30;;;;;;4967860;28;20034;-78
2021/01/27 08:31:12;;;;;;;6.27;2.80;;;2.10;84.90;;;;;;4960131;28;20038;-78
2021/01/27 08:33:47;;;;;;;7.50;2.80;;;2.10;85.00;;;;;;4970037;28;20094;-78
2021/01/27 08:36:19;;;;;;;7.07;2.83;;;2.00;86.00;;;;;;4959374;28;20031;-80
2021/01/27 08:39:06;;;;;;;4.30;1.85;;;1.90;86.90;;;;;;4956868;28;20030;-80
2021/01/27 08:42:20;;;;;;;6.63;2.60;;;1.80;87.60;;;;;;4976686;28;20208;-80
2021/01/27 08:44:47;;;;;;;5.37;2.60;;;1.80;88.20;;;;;;4898295;29;20048;-88
2021/01/27 08:47:37;;;;;;;6.23;2.60;;;1.80;88.70;;;;;;4916854;29;20040;-82
2021/01/27 08:50:04;;;;;;;9.23;3.13;;;1.80;89.10;;;;;;4909815;29;20533;-84
2021/01/27 08:52:34;;;;;;;6.27;2.60;;;1.80;88.90;;;;;;4911617;29;20488;-86
2021/01/27 08:55:01;;;;;;;5.97;2.50;;;1.80;89.20;;;;;;4901747;29;20084;-87
2021/01/27 08:57:37;;;;;;;5.63;2.70;;;1.80;89.10;;;;;;4919099;29;20059;-81
2021/01/27 09:00:13;;;;;;;5.77;2.90;;;1.80;89.40;;;;;;4909559;29;20140;-85
2021/01/27 09:02:44;;;;;;;6.80;2.60;;;1.70;89.80;;;;;;4913343;29;20058;-85
2021/01/27 09:05:22;;;;;;;6.23;2.97;;;1.80;89.80;;;;;;4902108;29;20056;-84
2021/01/27 09:07:52;;;;;;;4.63;2.63;;;1.70;90.00;;;;;;4901582;29;20040;-85
2021/01/27 09:10:21;;;;;;;5.73;2.90;;;1.70;90.00;;;;;;4898378;29;20075;-82
2021/01/27 09:12:48;;;;;;;4.17;2.60;;;1.80;90.00;;;;;;4922185;29;20059;-83
2021/01/27 09:15:32;;;;;;;5.27;2.57;;;1.80;90.10;;;;;;4927116;28;20051;-81
2021/01/27 09:17:58;;;;;;;4.63;3.00;;;1.80;90.00;;;;;;4985361;28;20034;-84
2021/01/27 09:20:28;;;;;;;6.23;3.00;;;1.80;90.00;;;;;;4968186;28;20041;-84
2021/01/27 09:23:04;;;;;;;4.77;3.17;;;1.80;90.00;;;;;;4962198;28;20387;-82
2021/01/27 09:25:32;;;;;;;4.30;2.97;;;1.80;90.00;;;;;;4967089;28;20439;-81
2021/01/27 09:28:04;;;;;;;6.20;3.10;;;1.90;90.30;;;;;;4970950;28;20093;-80
2021/01/27 09:30:30;;;;;;;;;;;1.90;89.70;;;;;;4972923;28;20126;-80
2021/01/27 09:33:10;;;;;;;4.77;2.90;;;1.90;90.00;;;;;;4963648;28;19942;-80
2021/01/27 09:35:36;;;;;;;6.07;2.90;;;1.90;89.90;;;;;;4990558;28;20045;-80
2021/01/27 09:38:17;;;;;;;6.60;4.23;;;1.90;90.00;;;;;;4968913;28;20030;-82
2021/01/27 09:40:49;;;;;;;7.80;4.37;;;1.90;90.00;;;;;;4966029;28;20041;-82
2021/01/27 09:43:19;;;;;;;10.27;5.13;;;1.90;90.00;;;;;;4962183;28;20054;-81
2021/01/27 09:45:47;;;;;;;7.20;3.73;;;1.80;90.00;;;;;;4996602;28;20045;-89
2021/01/27 09:48:16;;;;;;;6.07;3.93;;;1.90;90.00;;;;;;4968666;28;20479;-82
2021/01/27 09:50:50;;;;;;;8.50;4.20;;;1.80;90.10;;;;;;4992099;28;20053;-85
2021/01/27 09:53:34;;;;;;;6.90;3.97;;;1.80;90.20;;;;;;4980422;28;20133;-84
2021/01/27 09:56:00;;;;;;;10.57;4.37;;;1.90;90.60;;;;;;4987825;28;20026;-88
2021/01/27 09:58:27;;;;;;;5.60;3.80;;;1.90;90.20;;;;;;4971827;28;20069;-81
2021/01/27 10:01:00;;;;;;;6.50;3.97;;;2.00;90.00;;;;;;4963626;28;20479;-88
2021/01/27 10:03:27;;;;;;;5.73;3.27;;;2.10;89.90;;;;;;4949049;28;20031;-85
2021/01/27 10:05:54;;;;;;;5.73;3.63;;;2.20;89.70;;;;;;4971215;28;20030;-82
2021/01/27 10:08:21;;;;;;;6.17;3.27;;;2.20;89.30;;;;;;4965763;28;20035;-82
2021/01/27 10:11:06;;;;;;;5.30;3.37;;;2.20;89.40;;;;;;4974807;28;20035;-83
2021/01/27 10:13:34;;;;;;;5.37;3.23;;;2.10;89.70;;;;;;4950061;28;20042;-79
2021/01/27 10:16:07;;;;;;;7.57;3.60;;;2.10;90.00;;;;;;4996337;28;20033;-79
2021/01/27 10:18:34;;;;;;;5.70;3.47;;;2.10;89.90;;;;;;4981618;28;20035;-80
2021/01/27 10:21:03;;;;;;;5.47;3.30;;;2.10;90.00;;;;;;4978161;28;20059;-84
2021/01/27 10:23:35;;;;;;;6.43;3.90;;;2.20;90.10;;;;;;4973848;28;20038;-79
2021/01/27 10:26:20;;;;;;;5.97;3.13;;;2.20;89.90;;;;;;4985635;28;20027;-82
2021/01/27 10:28:46;;;;;;;9.60;3.50;;;2.20;90.00;;;;;;4964261;28;20069;-84
2021/01/27 10:31:31;;;;;;;7.07;3.20;;;2.20;89.60;;;;;;4976489;28;20057;-82
2021/01/27 10:33:57;;;;;;;6.33;3.17;;;2.20;89.50;;;;;;4984028;28;20502;-76
2021/01/27 10:36:31;;;;;;;4.70;3.20;;;2.30;89.50;;;;;;4966029;28;20038;-83
2021/01/27 10:39:16;;;;;;;5.80;2.97;;;2.30;89.40;;;;;;4975086;28;20039;-77
2021/01/27 10:41:44;;;;;;;6.33;2.60;;;2.30;89.50;;;;;;4965726;28;20096;-80
2021/01/27 10:44:22;;;;;;;4.50;2.60;;;2.30;89.30;;;;;;4985289;28;20051;-81
2021/01/27 10:46:49;;;;;;;5.03;2.70;;;2.30;89.40;;;;;;4973808;28;20035;-80
2021/01/27 10:49:15;;;;;;;5.37;2.90;;;2.30;89.40;;;;;;4961455;28;20553;-78
2021/01/27 10:51:44;;;;;;;5.43;2.80;;;2.40;89.80;;;;;;4989287;28;20030;-78
2021/01/27 10:54:11;;;;;;;4.13;2.50;;;2.30;89.30;;;;;;4968825;28;20038;-79
2021/01/27 10:56:38;;;;;;;4.80;2.80;;;2.30;89.50;;;;;;4964229;28;20035;-78
2021/01/27 10:59:03;;;;;;;6.30;3.00;;;2.30;89.80;;;;;;4974320;28;20120;-77
2021/01/27 11:01:29;;;;;;;3.70;2.57;;;2.30;89.80;;;;;;4977114;28;20476;-74
2021/01/27 11:03:55;;;;;;;5.60;2.73;;;2.30;90.00;;;;;;4969919;28;20392;-82
2021/01/27 11:06:20;;;;;;;3.07;2.13;;;2.40;90.00;;;;;;4970704;28;20043;-78
2021/01/27 11:08:50;;;;;;;6.00;2.57;;;2.40;89.40;;;;;;4975229;28;20376;-78
2021/01/27 11:11:16;;;;;;;4.90;2.17;;;2.50;89.50;;;;;;4973630;28;20368;-76
2021/01/27 11:13:42;;;;;;;4.13;2.00;;;2.50;89.30;;;;;;4981324;28;20048;-78
2021/01/27 11:16:09;;;;;;;5.20;2.20;;;2.50;88.80;;;;;;4977291;28;20038;-77
2021/01/27 11:18:35;;;;;;;3.40;1.90;;;2.60;88.80;;;;;;4977043;28;20117;-76
2021/01/27 11:21:02;;;;;;;3.87;2.03;;;2.70;88.50;;;;;;4961625;28;20043;-80
2021/01/27 11:23:28;;;;;;;4.20;1.97;;;2.70;88.40;;;;;;4972817;28;20038;-80
2021/01/27 11:25:54;;;;;;;3.80;1.87;;;2.70;88.20;;;;;;4983290;28;20026;-86
2021/01/27 11:28:21;;;;;;;2.80;1.80;;;2.70;88.60;;;;;;4982797;28;20495;-82
2021/01/27 11:30:49;;;;;;;4.80;2.03;;;2.70;88.70;;;;;;4990361;28;20035;-82
2021/01/27 11:33:18;;;;;;;3.10;1.60;;;2.70;88.60;;;;;;4961225;28;20038;-81
2021/01/27 11:35:44;;;;;;;2.90;1.80;;;2.80;88.60;;;;;;4988137;28;20073;-78
2021/01/27 11:38:10;;;;;;;3.53;1.80;;;2.80;88.50;;;;;;4957736;28;20191;-81
2021/01/27 11:40:36;;;;;;;2.27;1.53;;;2.80;88.60;;;;;;4988216;28;20239;-81
2021/01/27 11:43:02;;;;;;;3.40;1.50;;;2.80;88.40;;;;;;4978017;28;20395;-86
2021/01/27 11:45:28;;;;;;;3.40;1.53;;;2.80;88.00;;;;;;4985325;28;20494;-81
2021/01/27 11:47:55;;;;;;;2.43;1.37;;;2.80;88.10;;;;;;4969415;28;20035;-85
2021/01/27 11:50:24;;;;;;;4.00;1.70;;;2.80;88.00;;;;;;4956795;28;20038;-84
2021/01/27 11:52:50;;;;;;;3.13;1.37;;;2.80;88.40;;;;;;4968668;28;20042;-85
2021/01/27 11:55:17;;;;;;;2.83;1.70;;;2.80;88.00;;;;;;4960226;28;20038;-87
2021/01/27 11:57:43;;;;;;;2.37;1.50;;;2.70;88.50;;;;;;4987810;28;20039;-80
2021/01/27 12:00:10;;;;;;;2.43;1.67;;;2.80;88.10;;;;;;4957504;28;20094;-80
2021/01/27 12:02:36;;;;;;;2.47;1.37;;;2.70;88.20;;;;;;4970401;28;20066;-78
2021/01/27 12:05:02;;;;;;;3.53;1.10;;;2.70;88.50;;;;;;4977659;28;20074;-81
2021/01/27 12:07:28;;;;;;;2.77;1.10;;;2.60;88.50;;;;;;4988699;28;20038;-77
2021/01/27 12:09:54;;;;;;;1.30;0.90;;;2.70;88.40;;;;;;4982058;28;20035;-79
2021/01/27 12:12:19;;;;;;;3.17;1.23;;;2.70;88.30;;;;;;4982281;28;20034;-81
2021/01/27 12:14:45;;;;;;;2.17;0.90;;;2.70;88.00;;;;;;4972384;28;20398;-81
2021/01/27 12:17:11;;;;;;;1.37;0.83;;;2.70;87.90;;;;;;4976896;28;20053;-79
2021/01/27 12:19:38;;;;;;;1.60;1.00;;;2.70;87.80;;;;;;4993538;28;20034;-76
2021/01/27 12:22:04;;;;;;;1.80;0.93;;;2.70;88.00;;;;;;4967472;28;20046;-80
2021/01/27 12:24:30;;;;;;;4.87;1.20;;;2.70;88.00;;;;;;4970876;28;20042;-83
2021/01/27 12:26:56;;;;;;;1.67;1.10;;;2.80;88.40;;;;;;4989268;28;20026;-84
2021/01/27 12:29:22;;;;;;;1.80;0.83;;;2.80;88.10;;;;;;4960115;28;20057;-77
2021/01/27 12:31:49;;;;;;;1.43;0.93;;;2.80;88.70;;;;;;4976337;28;20479;-79
2021/01/27 12:34:15;;;;;;;3.20;1.30;;;2.70;88.50;;;;;;4965573;28;20039;-79
2021/01/27 12:36:41;;;;;;;1.47;1.00;;;2.70;89.00;;;;;;4970723;28;20041;-80
2021/01/27 12:39:07;;;;;;;2.13;1.10;;;2.70;89.10;;;;;;4960551;28;20466;-79
2021/01/27 12:41:33;;;;;;;3.20;1.20;;;2.80;88.70;;;;;;4976081;28;20042;-79
2021/01/27 12:43:58;;;;;;;1.53;0.90;;;2.80;89.30;;;;;;4967539;28;20051;-79
2021/01/27 12:46:24;;;;;;;3.27;1.23;;;2.80;88.30;;;;;;4936678;29;20496;-78
2021/01/27 12:48:50;;;;;;;1.60;1.20;;;2.80;88.30;;;;;;4985206;28;20364;-79
2021/01/27 12:51:16;;;;;;;2.90;1.30;;;2.80;89.30;;;;;;4959641;28;20026;-84
2021/01/27 12:53:43;;;;;;;1.57;1.00;;;2.80;88.70;;;;;;4970516;28;20456;-87
2021/01/27 12:56:09;;;;;;;2.50;1.20;;;2.80;88.70;;;;;;4958621;28;20031;-90
2021/01/27 12:58:35;;;;;;;2.53;1.20;;;2.80;89.00;;;;;;4991569;28;20065;-84
2021/01/27 13:01:00;;;;;;;1.40;1.00;;;2.70;89.10;;;;;;4981575;28;20511;-85
2021/01/27 13:03:26;;;;;;;3.30;1.17;;;2.70;89.00;;;;;;4975818;28;20472;-86
2021/01/27 13:05:52;;;;;;;3.33;1.00;;;2.80;89.20;;;;;;4986081;28;20479;-86
2021/01/27 13:08:17;;;;;;;1.20;0.97;;;2.80;89.20;;;;;;4968536;28;20086;-86
2021/01/27 13:10:43;;;;;;;2.37;1.20;;;2.70;88.90;;;;;;4975497;28;20045;-85
2021/01/27 13:13:11;;;;;;;2.10;1.07;;;2.70;89.30;;;;;;4963322;28;20074;-81
2021/01/27 13:15:36;;;;;;;4.27;1.30;;;2.70;89.00;;;;;;4990669;28;20037;-87
2021/01/27 13:18:03;;;;;;;3.80;1.00;;;2.60;89.10;;;;;;4989344;28;20039;-84
2021/01/27 13:20:28;;;;;;;1.67;1.10;;;2.60;88.90;;;;;;4972923;28;20045;-83
2021/01/27 13:22:54;;;;;;;3.67;1.37;;;2.60;89.00;;;;;;4964300;28;20121;-82
2021/01/27 13:25:22;;;;;;;3.00;1.10;;;2.60;89.30;;;;;;4979669;28;20406;-84
2021/01/27 13:27:49;;;;;;;1.73;1.00;;;2.60;89.20;;;;;;4972926;28;20484;-82
2021/01/27 13:30:16;;;;;;;4.00;1.10;;;2.60;89.40;;;;;;4960301;28;20038;-82
2021/01/27 13:32:42;;;;;;;3.87;1.20;;;2.60;89.50;;;;;;4973960;28;20044;-83
2021/01/27 13:35:08;;;;;;;1.80;1.07;;;2.60;89.70;;;;;;4997704;28;20094;-79
2021/01/27 13:37:35;;;;;;;1.77;0.87;;;2.60;89.60;;;;;;4967750;28;20111;-77
2021/01/27 13:40:01;;;;;;;1.83;0.90;;;2.60;89.70;;;;;;4955154;28;20046;-79
2021/01/27 13:42:27;;;;;;;4.00;1.23;;;2.60;90.00;;;;;;4961718;28;20475;-80
2021/01/27 13:44:53;;;;;;;1.33;0.90;;;2.60;90.20;;;;;;4959001;28;20058;-87
2021/01/27 13:47:19;;;;;;;3.03;1.47;;;2.50;90.10;;;;;;4962275;28;20034;-86
2021/01/27 13:49:45;;;;;;;4.63;1.40;;;2.60;90.20;;;;;;4977654;28;20101;-87
2021/01/27 13:52:10;;;;;;;2.53;1.10;;;2.60;90.30;;;;;;4960246;28;20034;-85
2021/01/27 13:54:36;;;;;;;1.67;0.80;;;2.60;90.20;;;;;;4960905;28;20049;-87
2021/01/27 13:57:02;;;;;;;2.80;1.00;;;2.60;90.10;;;;;;4977824;28;20049;-84
2021/01/27 13:59:27;;;;;;;1.70;1.00;;;2.60;90.20;;;;;;4960496;28;20492;-85
2021/01/27 14:01:53;;;;;;;2.87;1.00;;;2.60;90.10;;;;;;4968693;28;20394;-83
2021/01/27 14:04:19;;;;;;;3.53;1.00;;;2.50;90.20;;;;;;4985638;28;20110;-85
2021/01/27 14:06:44;;;;;;;2.87;1.00;;;2.50;90.30;;;;;;4955928;28;20117;-82
2021/01/27 14:09:10;;;;;;;2.50;1.00;;;2.60;90.20;;;;;;4987890;28;20043;-81
2021/01/27 14:11:36;;;;;;;2.33;1.07;;;2.50;90.10;;;;;;4982334;28;20037;-88
2021/01/27 14:14:01;;;;;;;1.50;0.97;;;2.50;90.30;;;;;;4960142;28;20081;-90
2021/01/27 14:16:27;;;;;;;1.73;1.30;;;2.50;90.30;;;;;;4959011;28;20034;-88
2021/01/27 14:18:54;;;;;;;2.13;0.90;;;2.50;90.10;;;;;;4973056;28;20035;-79
2021/01/27 14:21:22;;;;;;;1.60;0.90;;;2.50;90.40;;;;;;4978045;28;20034;-73
2021/01/27 14:23:48;;;;;;;1.13;0.90;;;2.50;90.20;;;;;;4959685;28;20042;-84
2021/01/27 14:26:13;;;;;;;1.40;0.80;;;2.50;90.30;;;;;;4976105;28;20039;-85
2021/01/27 14:28:39;;;;;;;2.50;1.30;;;2.50;90.10;;;;;;4958899;28;20102;-86
2021/01/27 14:31:05;;;;;;;1.57;0.90;;;2.50;90.10;;;;;;4959620;28;20042;-83
2021/01/27 14:33:30;;;;;;;1.67;0.83;;;2.50;90.20;;;;;;4959388;28;20415;-83
2021/01/27 14:35:56;;;;;;;1.67;0.87;;;2.50;90.20;;;;;;4959471;28;20039;-84
2021/01/27 14:38:22;;;;;;;1.50;0.90;;;2.40;90.40;;;;;;4968527;28;20480;-83
2021/01/27 14:40:49;;;;;;;1.87;0.77;;;2.40;90.50;;;;;;4974488;28;20388;-82
2021/01/27 14:43:14;;;;;;;1.07;0.80;;;2.40;90.60;;;;;;4995894;28;20050;-84
2021/01/27 14:45:40;;;;;;;2.83;1.30;;;2.40;90.60;;;;;;4978148;28;20419;-83
2021/01/27 14:48:08;;;;;;;3.00;0.90;;;2.40;90.50;;;;;;4979714;28;20034;-82
2021/01/27 14:50:35;;;;;;;1.43;1.00;;;2.40;90.60;;;;;;4984653;28;20500;-83
2021/01/27 14:53:01;;;;;;;1.43;1.10;;;2.40;90.60;;;;;;4959463;28;20035;-83
2021/01/27 14:55:26;;;;;;;1.30;0.93;;;2.40;90.60;;;;;;4960533;28;20046;-81
2021/01/27 14:57:52;;;;;;;2.23;1.10;;;2.40;90.70;;;;;;4990745;28;20081;-86
2021/01/27 15:00:19;;;;;;;3.30;1.40;;;2.40;90.80;;;;;;4980857;28;20034;-80
2021/01/27 15:02:45;;;;;;;1.80;1.30;;;2.40;90.80;;;;;;4966077;28;20035;-79
2021/01/27 15:05:11;;;;;;;2.73;1.30;;;2.40;90.90;;;;;;4974527;28;20057;-81
2021/01/27 15:07:37;;;;;;;3.70;1.50;;;2.40;91.00;;;;;;4961362;28;20096;-83
2021/01/27 15:10:09;;;;;;;2.67;1.50;;;2.40;91.00;;;;;;4989650;28;20129;-80
2021/01/27 15:12:34;;;;;;;2.75;1.20;;;2.40;91.10;;;;;;4983920;28;20110;-84
2021/01/27 15:15:00;;;;;;;1.90;1.50;;;2.40;91.20;;;;;;4972749;28;20069;-83
2021/01/27 15:17:29;;;;;;;3.23;1.60;;;2.40;91.20;;;;;;4978535;28;20030;-81
2021/01/27 15:19:58;;;;;;;3.17;1.60;;;2.50;91.30;;;;;;4995273;28;20053;-80
2021/01/27 15:22:24;;;;;;;2.63;1.60;;;2.50;91.30;;;;;;4968058;28;20034;-76
2021/01/27 15:24:51;;;;;;;3.80;1.57;;;2.50;91.50;;;;;;4958456;28;20043;-84
2021/01/27 15:27:16;;;;;;;2.90;1.30;;;2.50;91.50;;;;;;4991825;28;20038;-91
2021/01/27 15:29:43;;;;;;;3.33;1.70;;;2.50;91.60;;;;;;4979208;28;20430;-90
2021/01/27 15:32:10;;;;;;;2.13;1.57;;;2.50;91.50;;;;;;4987766;28;20026;-81
2021/01/27 15:34:35;;;;;;;4.37;2.03;;;2.60;91.60;;;;;;4968888;28;20134;-84
2021/01/27 15:37:02;;;;;;;2.53;1.47;;;2.60;91.60;;;;;;4977747;28;20073;-83
2021/01/27 15:39:28;;;;;;;4.13;1.87;;;2.60;91.70;;;;;;4987657;28;20046;-83
2021/01/27 15:41:53;;;;;;;3.03;1.80;;;2.60;91.60;;;;;;4958735;28;20442;-84
2021/01/27 15:44:20;;;;;;;2.70;1.80;;;2.60;91.60;;;;;;4966387;28;20085;-85
2021/01/27 15:46:46;;;;;;;5.03;2.30;;;2.60;91.60;;;;;;4994888;28;20072;-82
2021/01/27 15:49:13;;;;;;;5.07;2.13;;;2.60;91.60;;;;;;4994969;28;20513;-85
2021/01/27 15:51:43;;;;;;;3.50;2.10;;;2.60;91.70;;;;;;4960847;28;20113;-79
2021/01/27 15:54:10;;;;;;;4.47;2.13;;;2.60;91.80;;;;;;4969755;28;20049;-82
2021/01/27 15:56:37;;;;;;;4.53;2.33;;;2.60;91.80;;;;;;4967767;28;20547;-79
2021/01/27 15:59:03;;;;;;;4.80;2.37;;;2.60;91.80;;;;;;4979731;28;20034;-78
2021/01/27 16:01:29;;;;;;;3.40;2.10;;;2.60;91.80;;;;;;4990389;28;20034;-80
2021/01/27 16:03:55;;;;;;;5.77;2.17;;;2.60;91.90;;;;;;4962968;28;20043;-82
2021/01/27 16:06:21;;;;;;;4.43;2.10;;;2.60;91.90;;;;;;4965292;28;20035;-81
2021/01/27 16:08:48;;;;;;;3.53;2.13;;;2.60;91.80;;;;;;4956424;28;20045;-82
2021/01/27 16:11:13;;;;;;;5.30;2.30;;;2.60;91.80;;;;;;4967741;28;20125;-81
2021/01/27 16:13:39;;;;;;;3.37;2.13;;;2.60;91.70;;;;;;4949548;28;20058;-81
2021/01/27 16:16:05;;;;;;;3.17;2.20;;;2.60;91.70;;;;;;4958402;28;20031;-80
2021/01/27 16:18:31;;;;;;;5.00;2.27;;;2.60;91.80;;;;;;4956525;28;20034;-81
2021/01/27 16:20:57;;;;;;;5.17;2.30;;;2.60;91.80;;;;;;4990538;28;20056;-81
2021/01/27 16:23:22;;;;;;;4.07;2.17;;;2.60;91.90;;;;;;4959775;28;20041;-80
2021/01/27 16:25:48;;;;;;;5.07;2.17;;;2.60;91.80;;;;;;4969098;28;20047;-79
2021/01/27 16:28:14;;;;;;;4.93;2.53;;;2.60;91.80;;;;;;4968429;28;20039;-83
2021/01/27 16:30:40;;;;;;;5.13;2.40;;;2.70;91.80;;;;;;4975763;28;20384;-79
2021/01/27 16:33:07;;;;;;;5.30;2.60;;;2.70;91.80;;;;;;4960171;28;20034;-79
2021/01/27 16:35:35;;;;;;;4.73;2.70;;;2.70;91.70;;;;;;4970266;28;20030;-79
2021/01/27 16:38:01;;;;;;;4.93;2.40;;;2.70;91.70;;;;;;4973760;28;20031;-79
2021/01/27 16:40:27;;;;;;;4.27;2.63;;;2.70;91.70;;;;;;4956735;28;20125;-80
2021/01/27 16:42:55;;;;;;;5.43;2.47;;;2.80;91.60;;;;;;4957029;28;20122;-80
2021/01/27 16:45:23;;;;;;;4.80;2.50;;;2.80;91.60;;;;;;4993769;28;20101;-82
2021/01/27 16:47:49;;;;;;;4.10;2.50;;;2.80;91.70;;;;;;4969075;28;20033;-81
2021/01/27 16:50:16;;;;;;;4.20;2.40;;;2.80;91.70;;;;;;4968144;28;20057;-80
2021/01/27 16:52:41;;;;;;;3.50;2.50;;;2.80;91.70;;;;;;4959064;28;20043;-80
2021/01/27 16:55:09;;;;;;;4.33;2.60;;;2.80;91.80;;;;;;4973323;28;20053;-81
2021/01/27 16:57:34;;;;;;;3.87;2.27;;;2.80;91.70;;;;;;4962598;28;20092;-80
2021/01/27 17:00:00;;;;;;;5.13;2.57;;;2.70;91.80;;;;;;4976791;28;20034;-80
2021/01/27 17:02:27;;;;;;;3.90;2.30;;;2.80;91.80;;;;;;4963073;28;20042;-80
2021/01/27 17:04:52;;;;;;;3.70;2.50;;;2.80;91.90;;;;;;4973631;28;20042;-80
2021/01/27 17:07:18;;;;;;;3.97;2.43;;;2.80;91.80;;;;;;4961015;28;20525;-82
2021/01/27 17:09:44;;;;;;;4.57;2.60;;;2.80;91.90;;;;;;4968980;28;20082;-79
2021/01/27 17:12:10;;;;;;;3.80;2.70;;;2.70;91.90;;;;;;4966855;28;20443;-80
2021/01/27 17:14:36;;;;;;;5.07;2.97;;;2.70;91.90;;;;;;4970299;28;20042;-80
2021/01/27 17:17:02;;;;;;;5.10;2.97;;;2.80;91.90;;;;;;4960214;28;20045;-79
2021/01/27 17:19:28;;;;;;;6.00;2.70;;;2.80;91.80;;;;;;4970766;28;20125;-80
2021/01/27 17:21:53;;;;;;;4.70;2.93;;;2.80;91.80;;;;;;4965201;28;20030;-80
2021/01/27 17:24:19;;;;;;;6.27;3.23;;;2.80;91.80;;;;;;4963914;28;20039;-82
2021/01/27 17:26:46;;;;;;;6.60;3.00;;;2.90;91.90;;;;;;4972123;28;20030;-80
2021/01/27 17:29:12;;;;;;;9.17;3.20;;;2.80;91.70;;;;;;4959964;28;20154;-80
2021/01/27 17:31:38;;;;;;;8.27;3.47;;;2.90;91.80;;;;;;4969081;28;20030;-80
2021/01/27 17:34:05;;;;;;;4.43;3.00;;;2.90;91.70;;;;;;4956699;28;20393;-80
2021/01/27 17:36:31;;;;;;;6.27;3.10;;;2.90;91.70;;;;;;4969642;28;20518;-79
2021/01/27 17:38:57;;;;;;;7.07;2.90;;;2.90;91.70;;;;;;4977786;28;20042;-80
2021/01/27 17:41:23;;;;;;;4.13;2.60;;;2.90;91.60;;;;;;4971896;28;20035;-80
2021/01/27 17:43:50;;;;;;;4.77;2.80;;;2.90;91.60;;;;;;4982614;28;20042;-79
2021/01/27 17:46:16;;;;;;;4.67;3.10;;;2.90;91.60;;;;;;4985781;28;20042;-80
2021/01/27 17:48:47;;;;;;;5.80;3.10;;;2.80;91.60;;;;;;4962652;28;20069;-79
2021/01/27 17:51:13;;;;;;;4.73;3.03;;;2.80;91.70;;;;;;4975852;28;20090;-80
2021/01/27 17:53:39;;;;;;;6.73;2.80;;;2.80;92.10;;;;;;4966286;28;20375;-79
2021/01/27 17:56:05;;;;;;;4.53;2.90;;;2.80;91.80;;;;;;4987433;28;20034;-80
2021/01/27 17:58:31;;;;;;;6.80;3.60;;;2.80;91.90;;;;;;4989864;28;20639;-79
2021/01/27 18:00:56;;;;;;;6.10;3.23;;;2.80;91.90;;;;;;4963372;28;20057;-79
2021/01/27 18:03:22;;;;;;;7.13;3.10;;;2.80;91.80;;;;;;4974445;28;20027;-79
2021/01/27 18:05:48;;;;;;;5.80;3.20;;;2.70;91.70;;;;;;4979014;28;20034;-78
2021/01/27 18:08:18;;;;;;;5.57;3.30;;;2.80;91.70;;;;;;4967766;28;20101;-78
2021/01/27 18:10:44;;;;;;;5.37;2.93;;;2.80;91.80;;;;;;4978140;28;20045;-78
2021/01/27 18:13:10;;;;;;;6.03;3.60;;;2.80;91.80;;;;;;4962346;28;20047;-79
2021/01/27 18:15:36;;;;;;;5.73;3.27;;;2.80;91.80;;;;;;4972561;28;20062;-79
2021/01/27 18:18:03;;;;;;;5.37;3.30;;;2.80;91.80;;;;;;4969062;28;20038;-79
2021/01/27 18:20:30;;;;;;;8.47;3.67;;;2.80;91.80;;;;;;4982596;28;20067;-80
2021/01/27 18:22:56;;;;;;;5.87;3.40;;;2.80;91.80;;;;;;4992802;28;20034;-78
2021/01/27 18:25:40;;;;;;;9.00;4.07;;;2.80;91.80;;;;;;4980189;28;20041;-79
2021/01/27 18:28:07;;;;;;;7.10;3.80;;;2.80;91.80;;;;;;4968988;28;20102;-79
2021/01/27 18:30:39;;;;;;;8.20;4.50;;;2.80;91.90;;;;;;4972402;28;20472;-80
2021/01/27 18:33:05;;;;;;;6.80;4.25;;;2.80;91.90;;;;;;4962394;28;20033;-81
2021/01/27 18:35:35;;;;;;;8.07;4.27;;;2.80;91.80;;;;;;4990275;28;20054;-80
2021/01/27 18:38:03;;;;;;;5.77;3.90;;;2.80;91.80;;;;;;4986021;28;20045;-81
2021/01/27 18:40:29;;;;;;;6.70;4.23;;;2.80;91.80;;;;;;4965321;28;20428;-81
2021/01/27 18:42:55;;;;;;;6.17;4.20;;;2.80;91.70;;;;;;4982393;28;20097;-80
2021/01/27 18:45:27;;;;;;;7.10;4.10;;;2.80;91.60;;;;;;4991268;28;20035;-80
2021/01/27 18:47:53;;;;;;;;;;;2.80;91.60;;;;;;4985108;28;20069;-79
2021/01/27 18:50:19;;;;;;;7.47;3.77;;;2.80;91.60;;;;;;4966319;28;20278;-81
2021/01/27 18:52:45;;;;;;;8.97;4.07;;;2.80;91.60;;;;;;4990780;28;20033;-80
2021/01/27 18:55:12;;;;;;;8.13;4.60;;;2.80;91.50;;;;;;4961787;28;20265;-81
2021/01/27 18:57:37;;;;;;;8.27;4.50;;;2.80;91.50;;;;;;4988634;28;20082;-81
2021/01/27 19:00:09;;;;;;;6.30;4.27;;;2.80;91.50;;;;;;4958540;28;20063;-79
2021/01/27 19:02:35;;;;;;;;;;;2.80;91.50;;;;;;4972824;28;20034;-81
2021/01/27 19:05:01;;;;;;;10.73;4.17;;;2.80;91.40;;;;;;4962211;28;19917;-81
2021/01/27 19:07:27;;;;;;;5.87;4.13;;;2.80;91.40;;;;;;4973089;28;20061;-79
2021/01/27 19:09:53;;;;;;;9.50;4.60;;;2.80;91.40;;;;;;4966824;28;20498;-80
2021/01/27 19:12:19;;;;;;;8.97;4.60;;;2.80;91.50;;;;;;4965820;28;20039;-79
2021/01/27 19:14:46;;;;;;;9.57;4.77;;;2.80;91.50;;;;;;4975001;28;20134;-81
2021/01/27 19:17:12;;;;;;;8.23;4.33;;;2.80;91.50;;;;;;4974443;28;20043;-80
2021/01/27 19:19:39;;;;;;;10.17;5.20;;;2.80;91.50;;;;;;4964083;28;20125;-79
2021/01/27 19:22:05;;;;;;;8.43;4.93;;;2.80;91.50;;;;;;4968131;28;20122;-79
2021/01/27 19:24:30;;;;;;;10.60;5.20;;;2.80;91.60;;;;;;4977187;28;20137;-78
2021/01/27 19:26:56;;;;;;;6.83;4.50;;;2.80;91.60;;;;;;4961473;28;20046;-80
2021/01/27 19:29:22;;;;;;;8.37;5.20;;;2.80;91.70;;;;;;4968334;28;20080;-82
2021/01/27 19:31:47;;;;;;;10.33;5.27;;;2.80;91.70;;;;;;4969758;28;20049;-79
2021/01/27 19:34:13;;;;;;;8.53;5.00;;;2.80;91.80;;;;;;4986614;28;20169;-80
2021/01/27 19:36:39;;;;;;;8.57;4.70;;;2.80;91.80;;;;;;4955952;28;20070;-81
2021/01/27 19:39:06;;;;;;;8.23;4.40;;;2.90;91.80;;;;;;4961781;28;20129;-82
2021/01/27 19:41:33;;;;;;;8.90;4.83;;;2.90;91.90;;;;;;4974097;28;20129;-82
2021/01/27 19:43:59;;;;;;;9.27;4.83;;;2.90;92.20;;;;;;4960443;28;20141;-84
2021/01/27 19:46:25;;;;;;;10.97;5.97;;;2.90;91.90;;;;;;4967248;28;20045;-84
2021/01/27 19:48:51;;;;;;;12.20;5.30;;;2.90;91.90;;;;;;4991668;28;20034;-85
2021/01/27 19:51:17;;;;;;;8.87;5.30;;;2.90;91.90;;;;;;4970854;28;20120;-86
2021/01/27 19:53:43;;;;;;;8.43;5.17;;;2.80;91.90;;;;;;4977252;28;20050;-85
2021/01/27 19:56:09;;;;;;;10.77;5.30;;;2.90;92.00;;;;;;4960931;28;20047;-83
2021/01/27 19:58:35;;;;;;;10.13;5.40;;;2.90;92.00;;;;;;4973733;28;20046;-84
2021/01/27 20:01:00;;;;;;;9.97;5.50;;;2.90;92.10;;;;;;4961975;28;20035;-84
2021/01/27 20:03:27;;;;;;;10.63;5.40;;;2.90;92.10;;;;;;4962023;28;20081;-84
2021/01/27 20:05:53;;;;;;;9.57;5.07;;;2.90;92.00;;;;;;4960552;28;20034;-85
2021/01/27 20:08:21;;;;;;;10.83;5.83;;;2.90;92.00;;;;;;4960858;28;20487;-86
2021/01/27 20:10:48;;;;;;;9.63;5.07;;;2.90;92.00;;;;;;4969922;28;20057;-86
2021/01/27 20:13:17;;;;;;;10.00;5.37;;;2.90;92.10;;;;;;4967395;28;20039;-86
2021/01/27 20:15:43;;;;;;;9.53;5.53;;;2.90;92.10;;;;;;4960244;28;20419;-85
2021/01/27 20:18:11;;;;;;;12.57;6.23;;;2.90;92.10;;;;;;4974245;28;20046;-85
2021/01/27 20:20:37;;;;;;;7.97;5.40;;;3.00;92.20;;;;;;4959279;28;20034;-85
2021/01/27 20:23:05;;;;;;;11.60;5.80;;;3.00;92.20;;;;;;4960251;28;20035;-82
2021/01/27 20:25:33;;;;;;;9.97;5.73;;;3.00;92.10;;;;;;4957171;28;20097;-83
2021/01/27 20:28:00;;;;;;;9.23;5.73;;;3.00;92.10;;;;;;4961689;28;20027;-83
2021/01/27 20:30:28;;;;;;;11.30;5.73;;;3.00;92.20;;;;;;4955148;28;20030;-84
2021/01/27 20:32:56;;;;;;;11.10;5.73;;;3.10;92.10;;;;;;4968526;28;20536;-84
2021/01/27 20:35:25;;;;;;;10.53;5.83;;;3.10;92.10;;;;;;4970147;28;20074;-84
2021/01/27 20:37:50;;;;;;;11.40;6.43;;;3.00;92.20;;;;;;4967540;28;20113;-84
2021/01/27 20:40:17;;;;;;;10.33;6.47;;;3.00;92.20;;;;;;4959065;28;20070;-84
2021/01/27 20:42:43;;;;;;;9.97;6.33;;;3.00;92.20;;;;;;4957037;28;20038;-81
2021/01/27 20:51:07;;;;;;;11.23;5.27;;;3.00;92.10;;;;;;5197396;23;20047;-78